createdAt,value
2019-05-13T00:01:36.246Z,5.42
2019-05-13T00:04:03.594Z,5.41
2019-05-13T00:06:29.591Z,5.39
2019-05-13T00:08:55.738Z,5.34
2019-05-13T00:11:24.022Z,5.32
2019-05-13T00:13:49.862Z,5.30
2019-05-13T00:16:15.851Z,5.30
2019-05-13T00:18:41.714Z,5.31
2019-05-13T00:21:07.616Z,5.34
2019-05-13T00:23:34.075Z,5.31
2019-05-13T00:26:00.059Z,5.33
2019-05-13T00:28:25.927Z,5.33
2019-05-13T00:30:54.117Z,5.32
2019-05-13T00:33:19.720Z,5.31
2019-05-13T00:35:45.618Z,5.32
2019-05-13T00:38:13.955Z,5.34
2019-05-13T00:40:39.520Z,5.36
2019-05-13T00:43:05.482Z,5.38
2019-05-13T00:45:34.041Z,5.40
2019-05-13T00:47:59.338Z,5.42
2019-05-13T00:50:25.207Z,5.44
2019-05-13T00:52:53.483Z,5.45
2019-05-13T00:55:19.038Z,5.47
2019-05-13T00:57:44.890Z,5.51
2019-05-13T01:00:11.162Z,5.50
2019-05-13T01:02:37.049Z,5.52
2019-05-13T01:05:06.027Z,5.53
2019-05-13T01:07:34.070Z,5.53
2019-05-13T01:09:59.810Z,5.56
2019-05-13T01:12:25.678Z,5.59
2019-05-13T01:14:53.443Z,5.61
2019-05-13T01:17:20.092Z,5.62
2019-05-13T01:19:46.065Z,5.61
2019-05-13T01:22:13.515Z,5.62
2019-05-13T01:24:39.488Z,5.64
2019-05-13T01:27:05.370Z,5.67
2019-05-13T01:29:31.422Z,5.69
2019-05-13T01:31:57.433Z,5.72
2019-05-13T01:34:23.680Z,5.74
2019-05-13T01:36:49.737Z,5.78
2019-05-13T01:39:16.439Z,5.80
2019-05-13T01:41:43.848Z,5.81
2019-05-13T01:44:10.069Z,5.82
2019-05-13T01:46:36.055Z,5.83
2019-05-13T01:49:01.922Z,5.85
2019-05-13T01:51:28.006Z,5.89
2019-05-13T01:53:53.865Z,5.90
2019-05-13T01:56:19.714Z,5.91
2019-05-13T01:58:45.720Z,5.91
2019-05-13T02:01:13.684Z,5.95
2019-05-13T02:03:39.342Z,5.96
2019-05-13T02:06:05.529Z,5.99
2019-05-13T02:08:33.472Z,6.01
2019-05-13T02:10:59.161Z,6.04
2019-05-13T02:13:25.419Z,6.07
2019-05-13T02:15:51.786Z,6.08
2019-05-13T02:18:17.808Z,6.07
2019-05-13T02:20:44.456Z,6.05
2019-05-13T02:23:10.357Z,6.07
2019-05-13T02:25:36.331Z,6.11
2019-05-13T02:28:09.404Z,6.13
2019-05-13T02:30:30.074Z,6.15
2019-05-13T02:32:55.968Z,6.18
2019-05-13T02:35:23.158Z,6.21
2019-05-13T02:37:49.135Z,6.24
2019-05-13T02:40:14.976Z,6.27
2019-05-13T02:42:43.555Z,6.26
2019-05-13T02:45:12.085Z,6.27
2019-05-13T02:47:36.454Z,6.30
2019-05-13T02:50:05.286Z,6.32
2019-05-13T02:52:33.482Z,6.32
2019-05-13T02:54:59.022Z,6.32
2019-05-13T02:57:25.029Z,6.34
2019-05-13T02:59:52.649Z,6.36
2019-05-13T03:02:18.756Z,6.39
2019-05-13T03:04:44.833Z,6.41
2019-05-13T03:07:12.011Z,6.42
2019-05-13T03:09:38.154Z,6.42
2019-05-13T03:12:04.610Z,6.42
2019-05-13T03:14:32.276Z,6.43
2019-05-13T03:17:03.687Z,6.44
2019-05-13T03:19:32.936Z,6.44
2019-05-13T03:21:57.596Z,6.44
2019-05-13T03:24:23.629Z,6.46
2019-05-13T03:26:52.960Z,6.44
2019-05-13T03:29:17.433Z,6.45
2019-05-13T03:31:46.477Z,6.45
2019-05-13T03:34:15.815Z,6.43
2019-05-13T03:36:44.933Z,6.45
2019-05-13T03:39:14.494Z,6.43
2019-05-13T03:41:36.495Z,6.45
2019-05-13T03:44:04.250Z,6.47
2019-05-13T03:46:33.314Z,6.49
2019-05-13T03:49:02.412Z,6.50
2019-05-13T03:51:28.066Z,6.54
2019-05-13T03:53:54.919Z,6.55
2019-05-13T03:56:23.567Z,6.59
2019-05-13T03:58:49.135Z,6.61
2019-05-13T04:01:15.097Z,6.61
2019-05-13T04:03:43.872Z,6.61
2019-05-13T04:06:12.854Z,6.62
2019-05-13T04:08:36.682Z,6.61
2019-05-13T04:11:03.242Z,6.61
2019-05-13T04:13:29.222Z,6.61
2019-05-13T04:15:55.415Z,6.62
2019-05-13T04:18:23.555Z,6.64
2019-05-13T04:20:49.172Z,6.65
2019-05-13T04:23:15.220Z,6.68
2019-05-13T04:25:44.583Z,6.71
2019-05-13T04:28:09.165Z,6.72
2019-05-13T04:30:35.126Z,6.73
2019-05-13T04:33:02.344Z,6.77
2019-05-13T04:35:28.674Z,6.78
2019-05-13T04:37:54.686Z,6.79
2019-05-13T04:40:23.193Z,6.79
2019-05-13T04:42:48.537Z,6.81
2019-05-13T04:45:14.513Z,6.83
2019-05-13T04:47:43.236Z,6.89
2019-05-13T04:50:08.248Z,6.96
2019-05-13T04:52:34.238Z,7.00
2019-05-13T04:55:03.331Z,7.04
2019-05-13T04:57:28.087Z,7.05
2019-05-13T04:59:55.036Z,7.08
2019-05-13T05:02:37.497Z,7.11
2019-05-13T05:05:03.221Z,7.15
2019-05-13T05:07:42.088Z,7.18
2019-05-13T05:10:33.661Z,7.20
2019-05-13T05:13:12.778Z,7.24
2019-05-13T05:15:52.065Z,7.27
2019-05-13T05:18:21.982Z,7.28
2019-05-13T05:20:54.607Z,7.32
2019-05-13T05:23:25.310Z,7.36
2019-05-13T05:25:55.911Z,7.38
2019-05-13T05:28:41.211Z,7.41
2019-05-13T05:31:08.249Z,7.45
2019-05-13T05:33:52.857Z,7.48
2019-05-13T05:36:32.471Z,7.53
2019-05-13T05:39:01.725Z,7.57
2019-05-13T05:41:28.994Z,7.61
2019-05-13T05:43:56.305Z,7.65
2019-05-13T05:46:23.485Z,7.71
2019-05-13T05:48:52.996Z,7.76
2019-05-13T05:51:22.124Z,7.82
2019-05-13T05:53:48.137Z,7.87
2019-05-13T05:56:14.907Z,7.93
2019-05-13T05:58:41.928Z,7.97
2019-05-13T06:01:08.973Z,8.00
2019-05-13T06:03:35.339Z,8.03
2019-05-13T06:06:01.882Z,8.05
2019-05-13T06:08:27.909Z,8.08
2019-05-13T06:10:54.014Z,8.09
2019-05-13T06:13:21.442Z,8.14
2019-05-13T06:15:47.515Z,8.18
2019-05-13T06:18:13.355Z,8.22
2019-05-13T06:20:41.675Z,8.27
2019-05-13T06:23:07.167Z,8.27
2019-05-13T06:25:33.796Z,8.32
2019-05-13T06:28:01.796Z,8.37
2019-05-13T06:30:27.925Z,8.43
2019-05-13T06:32:53.909Z,8.46
2019-05-13T06:35:21.838Z,8.31
2019-05-13T06:37:47.743Z,8.52
2019-05-13T06:40:13.764Z,8.57
2019-05-13T06:42:41.727Z,8.61
2019-05-13T06:45:07.567Z,8.68
2019-05-13T06:47:36.160Z,8.72
2019-05-13T06:50:03.038Z,8.78
2019-05-13T06:52:31.283Z,8.81
2019-05-13T06:54:56.801Z,8.86
2019-05-13T06:57:23.001Z,8.90
2019-05-13T06:59:49.340Z,8.90
2019-05-13T07:02:15.237Z,8.91
2019-05-13T07:04:41.603Z,8.93
2019-05-13T07:07:13.188Z,8.98
2019-05-13T07:09:35.248Z,9.01
2019-05-13T07:12:03.211Z,9.00
2019-05-13T07:14:28.867Z,9.00
2019-05-13T07:16:55.092Z,9.03
2019-05-13T07:19:23.727Z,9.04
2019-05-13T07:21:49.031Z,9.09
2019-05-13T07:24:14.883Z,9.11
2019-05-13T07:26:41.887Z,9.13
2019-05-13T07:29:08.491Z,9.15
2019-05-13T07:31:34.824Z,9.16
2019-05-13T07:34:02.280Z,9.19
2019-05-13T07:36:28.666Z,9.22
2019-05-13T07:38:54.870Z,9.25
2019-05-13T07:41:33.081Z,9.29
2019-05-13T07:43:48.559Z,9.28
2019-05-13T07:46:14.708Z,9.29
2019-05-13T07:48:41.605Z,9.31
2019-05-13T07:51:07.834Z,9.16
2019-05-13T07:53:33.684Z,9.33
2019-05-13T07:56:01.982Z,9.37
2019-05-13T07:58:27.574Z,9.41
2019-05-13T08:00:53.454Z,9.45
2019-05-13T08:03:21.372Z,9.49
2019-05-13T08:05:47.223Z,9.48
2019-05-13T08:08:13.126Z,9.50
2019-05-13T08:10:41.421Z,9.53
2019-05-13T08:13:07.252Z,9.57
2019-05-13T08:15:33.121Z,9.63
2019-05-13T08:18:01.814Z,9.68
2019-05-13T08:20:26.967Z,9.72
2019-05-13T08:22:52.856Z,9.76
2019-05-13T08:25:22.180Z,9.78
2019-05-13T08:27:47.930Z,9.79
2019-05-13T08:30:17.897Z,9.79
2019-05-13T08:32:42.646Z,9.81
2019-05-13T08:35:09.980Z,9.68
2019-05-13T08:37:36.745Z,9.84
2019-05-13T08:40:04.520Z,9.86
2019-05-13T08:42:32.259Z,9.89
2019-05-13T08:44:58.210Z,9.95
2019-05-13T08:47:24.076Z,9.96
2019-05-13T08:49:52.073Z,10.03
2019-05-13T08:52:18.019Z,10.09
2019-05-13T08:54:43.864Z,10.17
2019-05-13T08:57:11.783Z,10.22
2019-05-13T08:59:37.572Z,10.25
2019-05-13T09:02:03.688Z,10.30
2019-05-13T09:04:31.550Z,10.31
2019-05-13T09:06:57.471Z,10.30
2019-05-13T09:09:23.327Z,10.30
2019-05-13T09:11:51.438Z,10.30
2019-05-13T09:14:17.110Z,10.37
2019-05-13T09:16:43.678Z,10.42
2019-05-13T09:19:15.767Z,10.44
2019-05-13T09:21:38.008Z,10.46
2019-05-13T09:24:20.835Z,10.47
2019-05-13T09:26:32.720Z,10.46
2019-05-13T09:28:58.565Z,10.51
2019-05-13T09:31:24.414Z,10.57
2019-05-13T09:33:52.069Z,10.60
2019-05-13T09:36:18.085Z,10.69
2019-05-13T09:38:43.950Z,10.79
2019-05-13T09:41:12.376Z,10.93
2019-05-13T09:43:38.608Z,11.02
2019-05-13T09:46:04.604Z,11.01
2019-05-13T09:48:32.003Z,10.99
2019-05-13T09:50:58.649Z,10.95
2019-05-13T09:53:24.514Z,11.04
2019-05-13T09:55:52.176Z,11.24
2019-05-13T09:58:18.435Z,11.42
2019-05-13T10:00:44.821Z,11.58
2019-05-13T10:03:13.472Z,11.69
2019-05-13T10:05:38.544Z,11.74
2019-05-13T10:08:04.419Z,11.76
2019-05-13T10:10:31.987Z,11.70
2019-05-13T10:13:09.236Z,11.68
2019-05-13T10:15:25.617Z,11.69
2019-05-13T10:17:52.691Z,11.71
2019-05-13T10:20:21.469Z,11.72
2019-05-13T10:22:47.416Z,11.71
2019-05-13T10:25:14.780Z,11.79
2019-05-13T10:27:41.907Z,11.92
2019-05-13T10:30:11.409Z,11.92
2019-05-13T10:32:37.626Z,11.89
2019-05-13T10:35:04.225Z,11.84
2019-05-13T10:37:30.202Z,11.79
2019-05-13T10:39:56.300Z,11.74
2019-05-13T10:42:22.360Z,11.61
2019-05-13T10:44:48.387Z,11.45
2019-05-13T10:47:14.365Z,11.35
2019-05-13T10:49:42.412Z,11.35
2019-05-13T10:52:07.917Z,11.47
2019-05-13T10:54:33.923Z,11.58
2019-05-13T10:57:00.779Z,11.54
2019-05-13T10:59:27.479Z,11.82
2019-05-13T11:01:53.605Z,11.92
2019-05-13T11:04:21.820Z,11.94
2019-05-13T11:06:47.235Z,11.93
2019-05-13T11:09:13.469Z,11.86
2019-05-13T11:11:41.399Z,11.83
2019-05-13T11:14:11.209Z,11.82
2019-05-13T11:16:35.053Z,11.81
2019-05-13T11:19:02.824Z,11.79
2019-05-13T11:21:28.609Z,11.82
2019-05-13T11:23:54.574Z,11.83
2019-05-13T11:26:22.113Z,11.76
2019-05-13T11:28:48.198Z,11.69
2019-05-13T11:31:14.362Z,11.63
2019-05-13T11:33:42.510Z,11.56
2019-05-13T11:36:08.094Z,11.57
2019-05-13T11:38:35.616Z,11.60
2019-05-13T11:41:02.570Z,11.64
2019-05-13T11:43:28.579Z,11.68
2019-05-13T11:45:54.947Z,11.70
2019-05-13T11:48:23.561Z,11.73
2019-05-13T11:50:50.438Z,11.81
2019-05-13T11:53:31.518Z,11.92
2019-05-13T11:55:44.348Z,11.97
2019-05-13T11:58:13.910Z,12.00
2019-05-13T12:00:45.359Z,12.05
2019-05-13T12:03:11.439Z,12.08
2019-05-13T12:05:37.357Z,12.09
2019-05-13T12:08:03.426Z,12.09
2019-05-13T12:10:32.475Z,12.07
2019-05-13T12:12:57.068Z,12.04
2019-05-13T12:15:33.481Z,12.03
2019-05-13T12:17:52.982Z,12.03
2019-05-13T12:20:18.495Z,12.03
2019-05-13T12:22:44.660Z,12.03
2019-05-13T12:25:13.870Z,12.01
2019-05-13T12:27:38.341Z,11.99
2019-05-13T12:30:05.699Z,11.90
2019-05-13T12:32:32.261Z,11.80
2019-05-13T12:34:58.329Z,11.74
2019-05-13T12:37:24.363Z,11.70
2019-05-13T12:39:53.010Z,11.72
2019-05-13T12:42:17.880Z,11.75
2019-05-13T12:45:00.231Z,11.78
2019-05-13T12:47:12.281Z,11.83
2019-05-13T12:49:38.361Z,11.86
2019-05-13T12:52:04.765Z,11.90
2019-05-13T12:54:32.437Z,11.95
2019-05-13T12:56:58.417Z,12.04
2019-05-13T12:59:24.454Z,12.14
2019-05-13T13:01:52.732Z,12.26
2019-05-13T13:04:18.243Z,12.40
2019-05-13T13:06:45.350Z,12.55
2019-05-13T13:09:12.698Z,12.66
2019-05-13T13:11:39.049Z,12.76
2019-05-13T13:14:10.493Z,12.88
2019-05-13T13:16:34.785Z,13.02
2019-05-13T13:19:02.491Z,13.15
2019-05-13T13:21:33.618Z,13.22
2019-05-13T13:23:56.298Z,13.27
2019-05-13T13:26:22.261Z,13.27
2019-05-13T13:28:48.221Z,13.16
2019-05-13T13:31:14.118Z,13.09
2019-05-13T13:33:43.428Z,13.03
2019-05-13T13:36:08.042Z,12.99
2019-05-13T13:38:34.034Z,12.94
2019-05-13T13:41:03.038Z,12.93
2019-05-13T13:43:27.837Z,12.92
2019-05-13T13:46:07.524Z,12.86
2019-05-13T13:48:25.355Z,12.75
2019-05-13T13:50:55.035Z,12.67
2019-05-13T13:53:17.065Z,12.62
2019-05-13T13:55:44.346Z,12.61
2019-05-13T13:58:14.123Z,12.61
2019-05-13T14:00:52.545Z,12.62
2019-05-13T14:03:06.779Z,12.64
2019-05-13T14:05:36.286Z,12.69
2019-05-13T14:08:01.641Z,12.69
2019-05-13T14:10:27.752Z,12.68
2019-05-13T14:12:53.877Z,12.67
2019-05-13T14:15:21.547Z,12.65
2019-05-13T14:17:47.547Z,12.68
2019-05-13T14:20:13.709Z,12.73
2019-05-13T14:22:41.893Z,12.78
2019-05-13T14:25:07.387Z,12.81
2019-05-13T14:27:33.460Z,12.85
2019-05-13T14:30:01.292Z,12.91
2019-05-13T14:32:27.094Z,12.92
2019-05-13T14:34:53.157Z,12.91
2019-05-13T14:37:19.052Z,12.88
2019-05-13T14:39:44.904Z,12.87
2019-05-13T14:42:11.596Z,12.89
2019-05-13T14:44:37.732Z,12.95
2019-05-13T14:47:03.589Z,13.02
2019-05-13T14:49:31.687Z,13.10
2019-05-13T14:51:57.235Z,13.16
2019-05-13T14:54:23.461Z,13.18
2019-05-13T14:56:52.064Z,13.19
2019-05-13T14:59:17.315Z,13.12
2019-05-13T15:01:43.262Z,12.97
2019-05-13T15:04:11.992Z,12.91
2019-05-13T15:06:36.982Z,12.86
2019-05-13T15:09:04.662Z,12.84
2019-05-13T15:11:32.562Z,12.78
2019-05-13T15:13:58.354Z,12.73
2019-05-13T15:16:24.352Z,12.69
2019-05-13T15:18:52.541Z,12.71
2019-05-13T15:21:17.986Z,12.74
2019-05-13T15:23:43.859Z,12.82
2019-05-13T15:26:11.661Z,12.85
2019-05-13T15:28:37.703Z,12.88
2019-05-13T15:31:03.551Z,12.85
2019-05-13T15:33:32.244Z,12.81
2019-05-13T15:35:57.268Z,12.77
2019-05-13T15:38:23.353Z,12.84
2019-05-13T15:40:51.988Z,12.91
2019-05-13T15:43:17.162Z,12.88
2019-05-13T15:45:43.038Z,12.87
2019-05-13T15:48:11.477Z,12.86
2019-05-13T15:50:36.957Z,12.85
2019-05-13T15:53:03.113Z,12.83
2019-05-13T15:55:29.227Z,12.75
2019-05-13T15:57:55.103Z,12.67
2019-05-13T16:00:21.980Z,12.56
2019-05-13T16:02:48.071Z,12.47
2019-05-13T16:05:14.025Z,12.48
2019-05-13T16:07:41.806Z,12.48
2019-05-13T16:10:08.032Z,12.45
2019-05-13T16:12:34.089Z,12.43
2019-05-13T16:15:02.114Z,12.38
2019-05-13T16:17:40.619Z,12.33
2019-05-13T16:19:55.374Z,12.29
2019-05-13T16:22:23.059Z,12.27
2019-05-13T16:24:49.213Z,12.26
2019-05-13T16:27:15.067Z,12.23
2019-05-13T16:29:42.160Z,12.21
2019-05-13T16:32:08.414Z,12.23
2019-05-13T16:34:34.304Z,12.21
2019-05-13T16:37:01.853Z,12.21
2019-05-13T16:39:27.903Z,12.23
2019-05-13T16:41:53.743Z,12.28
2019-05-13T16:44:22.276Z,12.33
2019-05-13T16:46:47.673Z,12.37
2019-05-13T16:49:13.813Z,12.37
2019-05-13T16:51:39.677Z,12.36
2019-05-13T16:54:05.690Z,12.38
2019-05-13T16:56:33.441Z,12.40
2019-05-13T16:59:01.452Z,12.39
2019-05-13T17:01:27.255Z,12.38
2019-05-13T17:03:53.222Z,12.38
2019-05-13T17:06:21.424Z,12.39
2019-05-13T17:08:47.158Z,12.39
2019-05-13T17:11:12.999Z,12.40
2019-05-13T17:13:39.373Z,12.39
2019-05-13T17:16:05.353Z,12.37
2019-05-13T17:18:32.464Z,12.35
2019-05-13T17:20:58.603Z,12.36
2019-05-13T17:23:24.631Z,12.34
2019-05-13T17:25:51.971Z,12.33
2019-05-13T17:28:18.159Z,12.29
2019-05-13T17:30:44.133Z,12.23
2019-05-13T17:33:11.766Z,12.20
2019-05-13T17:35:37.859Z,12.16
2019-05-13T17:38:04.003Z,12.15
2019-05-13T17:40:31.450Z,12.14
2019-05-13T17:42:57.447Z,12.17
2019-05-13T17:45:23.498Z,12.20
2019-05-13T17:47:49.381Z,12.20
2019-05-13T17:50:15.352Z,12.20
2019-05-13T17:52:41.495Z,12.19
2019-05-13T17:55:07.476Z,12.18
2019-05-13T17:57:33.370Z,12.12
2019-05-13T17:59:59.503Z,12.08
2019-05-13T18:02:25.350Z,12.03
2019-05-13T18:04:52.115Z,11.99
2019-05-13T18:07:18.257Z,11.93
2019-05-13T18:09:44.121Z,11.89
2019-05-13T18:12:11.590Z,11.85
2019-05-13T18:14:37.864Z,11.78
2019-05-13T18:17:03.865Z,11.72
2019-05-13T18:19:31.733Z,11.66
2019-05-13T18:21:57.557Z,11.57
2019-05-13T18:24:23.404Z,11.52
2019-05-13T18:26:51.939Z,11.48
2019-05-13T18:29:17.127Z,11.43
2019-05-13T18:31:42.982Z,11.41
2019-05-13T18:34:08.845Z,11.37
2019-05-13T18:36:34.860Z,11.35
2019-05-13T18:39:01.657Z,11.33
2019-05-13T18:41:27.707Z,11.32
2019-05-13T18:43:55.028Z,11.32
2019-05-13T18:46:21.730Z,11.33
2019-05-13T18:48:58.509Z,11.33
2019-05-13T18:51:15.709Z,11.30
2019-05-13T18:53:41.637Z,11.29
2019-05-13T18:56:07.449Z,11.25
2019-05-13T18:58:33.440Z,11.24
2019-05-13T19:01:01.334Z,11.21
2019-05-13T19:03:27.202Z,11.20
2019-05-13T19:05:53.240Z,11.16
2019-05-13T19:08:21.291Z,11.13
2019-05-13T19:10:46.896Z,11.09
2019-05-13T19:13:15.653Z,11.07
2019-05-13T19:15:41.491Z,11.05
2019-05-13T19:18:07.428Z,11.04
2019-05-13T19:20:33.493Z,11.01
2019-05-13T19:23:01.176Z,11.00
2019-05-13T19:25:27.182Z,10.94
2019-05-13T19:27:53.219Z,10.90
2019-05-13T19:30:21.153Z,10.87
2019-05-13T19:32:46.850Z,10.85
2019-05-13T19:35:12.928Z,10.83
2019-05-13T19:37:38.897Z,10.81
2019-05-13T19:40:05.443Z,10.79
2019-05-13T19:42:31.711Z,10.77
2019-05-13T19:44:57.559Z,10.75
2019-05-13T19:47:23.413Z,10.70
2019-05-13T19:49:52.151Z,10.69
2019-05-13T19:52:17.130Z,10.67
2019-05-13T19:54:43.008Z,10.63
2019-05-13T19:57:09.077Z,10.60
2019-05-13T19:59:34.968Z,10.48
2019-05-13T20:02:01.477Z,10.32
2019-05-13T20:04:27.598Z,10.24
2019-05-13T20:06:53.557Z,10.19
2019-05-13T20:09:21.493Z,10.15
2019-05-13T20:11:47.307Z,10.14
2019-05-13T20:14:13.147Z,10.11
2019-05-13T20:16:41.497Z,10.06
2019-05-13T20:19:06.880Z,10.00
2019-05-13T20:21:32.764Z,9.94
2019-05-13T20:23:58.778Z,9.86
2019-05-13T20:26:24.823Z,9.84
2019-05-13T20:28:51.329Z,9.81
2019-05-13T20:31:17.265Z,9.79
2019-05-13T20:33:43.223Z,9.75
2019-05-13T20:36:09.085Z,9.71
2019-05-13T20:38:34.949Z,9.67
2019-05-13T20:41:01.466Z,9.63
2019-05-13T20:43:27.497Z,9.61
2019-05-13T20:45:53.336Z,9.57
2019-05-13T20:48:21.093Z,9.48
2019-05-13T20:50:47.016Z,9.44
2019-05-13T20:53:12.882Z,9.41
2019-05-13T20:55:41.498Z,9.37
2019-05-13T20:58:06.845Z,9.32
2019-05-13T21:00:32.726Z,9.27
2019-05-13T21:02:58.829Z,9.23
2019-05-13T21:05:27.112Z,9.18
2019-05-13T21:07:52.985Z,9.13
2019-05-13T21:10:20.963Z,9.06
2019-05-13T21:12:46.651Z,8.97
2019-05-13T21:15:13.118Z,8.90
2019-05-13T21:17:39.250Z,8.86
2019-05-13T21:20:18.725Z,8.83
2019-05-13T21:22:33.000Z,8.79
2019-05-13T21:24:59.099Z,8.75
2019-05-13T21:27:25.073Z,8.72
2019-05-13T21:29:51.916Z,8.68
2019-05-13T21:32:18.205Z,8.63
2019-05-13T21:34:44.096Z,8.57
2019-05-13T21:37:11.501Z,8.51
2019-05-13T21:39:37.695Z,8.45
2019-05-13T21:42:03.719Z,8.39
2019-05-13T21:44:29.643Z,8.32
2019-05-13T21:46:55.770Z,8.25
2019-05-13T21:49:21.634Z,8.18
2019-05-13T21:51:48.594Z,8.13
2019-05-13T21:54:14.563Z,8.08
2019-05-13T21:56:42.406Z,8.02
2019-05-13T21:59:08.119Z,7.99
2019-05-13T22:01:34.160Z,7.93
2019-05-13T22:04:01.714Z,7.89
2019-05-13T22:06:27.790Z,7.85
2019-05-13T22:08:53.947Z,7.80
2019-05-13T22:11:22.041Z,7.75
2019-05-13T22:13:47.810Z,7.72
2019-05-13T22:16:13.829Z,7.69
2019-05-13T22:18:41.805Z,7.67
2019-05-13T22:21:07.675Z,7.61
2019-05-13T22:23:33.607Z,7.55
2019-05-13T22:26:01.519Z,7.51
2019-05-13T22:28:27.264Z,7.46
2019-05-13T22:30:53.400Z,7.41
2019-05-13T22:33:21.444Z,7.36
2019-05-13T22:35:47.054Z,7.32
2019-05-13T22:38:13.074Z,7.29
2019-05-13T22:40:38.934Z,7.25
2019-05-13T22:43:04.813Z,7.23
2019-05-13T22:45:31.330Z,7.19
2019-05-13T22:47:57.262Z,7.15
2019-05-13T22:50:23.123Z,7.12
2019-05-13T22:52:49.170Z,7.08
2019-05-13T22:55:15.156Z,7.05
2019-05-13T22:57:41.907Z,7.02
2019-05-13T23:00:08.309Z,6.99
2019-05-13T23:02:34.279Z,6.95
2019-05-13T23:05:01.713Z,6.91
2019-05-13T23:07:27.815Z,6.89
2019-05-13T23:09:53.666Z,6.87
2019-05-13T23:12:21.268Z,6.86
2019-05-13T23:14:47.444Z,6.85
2019-05-13T23:17:13.409Z,6.85
2019-05-13T23:19:41.353Z,6.83
2019-05-13T23:22:07.229Z,6.80
2019-05-13T23:24:33.145Z,6.77
2019-05-13T23:26:59.006Z,6.74
2019-05-13T23:29:25.018Z,6.71
2019-05-13T23:31:52.092Z,6.70
2019-05-13T23:34:17.999Z,6.66
2019-05-13T23:36:44.038Z,6.65
2019-05-13T23:39:11.678Z,6.64
2019-05-13T23:41:37.708Z,6.63
2019-05-13T23:44:03.861Z,6.59
2019-05-13T23:46:31.421Z,6.57
2019-05-13T23:48:57.364Z,6.56
2019-05-13T23:51:23.526Z,6.56
2019-05-13T23:53:51.031Z,6.56
2019-05-13T23:56:16.972Z,6.56
2019-05-13T23:58:43.038Z,6.56
